Time;durP1;ratioP1;P1;durP2;ratioP2;P2;SDS_P1;SDS_P2;PMS_P1;PMS_P2;Temp;Humidity;BMP_temperature;BMP_pressure;BME280_temperature;BME280_humidity;BME280_pressure;Samples;Min_cycle;Max_cycle;Signal;HPM_P1;HPM_P2
2022/04/16 00:00:56;;;;;;;;;;;8.70;99.90;;;8.05;86.49;98167.59;5064337;28;19917;-54
2022/04/16 00:03:23;;;;;;;;;;;8.60;99.90;;;7.99;87.39;98171.16;5058814;28;19912;-55
2022/04/16 00:05:53;;;;;;;;;;;8.50;99.90;;;7.98;86.91;98177.28;5060832;28;19966;-51
2022/04/16 00:08:20;;;;;;;;;;;8.50;99.90;;;7.90;87.92;98173.94;5054730;28;20007;-55
2022/04/16 00:10:46;;;;;;;;;;;8.40;99.90;;;7.91;87.41;98178.28;5060232;28;19920;-54
2022/04/16 00:13:11;;;;;;;;;;;8.40;99.90;;;7.82;87.73;98177.53;5061697;28;19965;-54
2022/04/16 00:15:38;;;;;;;;;;;8.30;99.90;;;7.76;88.39;98176.72;5061332;28;19920;-53
2022/04/16 00:18:04;;;;;;;;;;;8.30;99.90;;;7.72;88.72;98178.53;5059707;28;19916;-53
2022/04/16 00:20:33;;;;;;;;;;;8.20;99.90;;;7.66;89.47;98181.22;5061368;28;19917;-54
2022/04/16 00:22:58;;;;;;;;;;;8.20;99.90;;;7.62;90.37;98174.28;5062137;28;19921;-53
2022/04/16 00:25:24;;;;;;;;;;;8.10;99.90;;;7.56;90.89;98171.75;5060099;28;20300;-53
2022/04/16 00:27:50;;;;;;;;;;;8.10;99.90;;;7.51;91.38;98169.16;5058867;28;20376;-54
2022/04/16 00:30:19;;;;;;;;;;;8.00;99.90;;;7.48;91.61;98170.97;5058981;28;19912;-55
2022/04/16 00:32:44;;;;;;;;;;;8.00;99.90;;;7.45;91.23;98171.88;5058354;28;19916;-54
2022/04/16 00:35:11;;;;;;;;;;;8.00;99.90;;;7.44;91.12;98170.13;5063533;28;19926;-54
2022/04/16 00:37:37;;;;;;;;;;;8.00;99.90;;;7.40;91.13;98169.28;5063330;28;20368;-54
2022/04/16 00:40:04;;;;;;;;;;;7.90;99.90;;;7.35;91.32;98168.47;5060927;28;19920;-53
2022/04/16 00:42:45;;;;;;;;;;;7.90;99.90;;;7.33;92.15;98167.63;5053775;28;19912;-54
2022/04/16 00:45:12;;;;;;;;;;;7.90;99.90;;;7.41;90.97;98162.28;5062987;28;19918;-53
2022/04/16 00:47:38;;;;;;;;;;;7.80;99.90;;;7.40;90.48;98171.91;5058676;28;19939;-54
2022/04/16 00:50:05;;;;;;;;;;;7.90;99.90;;;7.53;88.65;98169.16;5059995;28;20372;-55
2022/04/16 00:52:31;;;;;;;;;;;8.00;99.90;;;7.60;89.04;98165.56;5058818;28;19938;-55
2022/04/16 00:54:56;;;;;;;;;;;8.10;99.90;;;7.72;88.45;98164.53;5056481;28;20379;-53
2022/04/16 00:57:25;;;;;;;;;;;8.10;99.90;;;7.71;87.60;98165.41;5065749;28;19958;-54
2022/04/16 00:59:51;;;;;;;;;;;8.20;99.90;;;7.74;87.90;98168.88;5058489;28;19916;-54
2022/04/16 01:02:16;;;;;;;;;;;8.20;99.90;;;7.66;87.63;98152.34;5061917;28;19913;-54
2022/04/16 01:04:43;;;;;;;;;;;8.20;99.90;;;7.76;88.10;98161.84;5054217;28;19931;-54
2022/04/16 01:07:09;;;;;;;;;;;8.20;99.90;;;7.75;87.85;98165.38;5066980;28;20427;-54
2022/04/16 01:09:35;;;;;;;;;;;8.20;99.90;;;7.78;87.85;98161.81;5057725;28;20820;-52
2022/04/16 01:12:01;;;;;;;;;;;8.20;99.90;;;7.72;87.96;98170.66;5064807;28;20285;-53
2022/04/16 01:14:28;;;;;;;;;;;8.20;99.90;;;7.69;88.20;98162.81;5060762;28;20380;-51
2022/04/16 01:16:55;;;;;;;;;;;8.20;99.90;;;7.66;88.67;98162.84;5057297;28;19913;-53
2022/04/16 01:19:21;;;;;;;;;;;8.20;99.90;;;7.69;87.89;98160.19;5062725;28;20007;-51
2022/04/16 01:21:47;;;;;;;;;;;8.10;99.90;;;7.78;87.09;98167.06;5056860;28;19920;-52
2022/04/16 01:24:14;;;;;;;;;;;8.20;99.90;;;7.72;87.19;98159.28;5057637;28;19917;-53
2022/04/16 01:26:41;;;;;;;;;;;8.20;99.90;;;7.65;87.29;98154.09;5063834;28;19916;-53
2022/04/16 01:29:11;;;;;;;;;;;8.10;99.90;;;7.60;87.49;98149.81;5060552;28;19971;-54
2022/04/16 01:31:36;;;;;;;;;;;8.10;99.90;;;7.53;87.68;98156.03;5063683;28;19923;-53
2022/04/16 01:34:03;;;;;;;;;;;8.00;99.90;;;7.42;88.29;98157.00;5061023;28;19912;-54
2022/04/16 01:36:30;;;;;;;;;;;8.00;99.90;;;7.43;88.63;98147.41;5069265;28;19975;-53
2022/04/16 01:38:57;;;;;;;;;;;7.90;99.90;;;7.41;88.57;98154.41;5063846;28;20007;-53
2022/04/16 01:41:24;;;;;;;;;;;7.90;99.90;;;7.33;88.99;98148.41;5067032;28;19973;-53
2022/04/16 01:43:50;;;;;;;;;;;7.80;99.90;;;7.25;89.78;98151.97;5061728;28;20375;-51
2022/04/16 01:46:15;;;;;;;;;;;7.80;99.90;;;7.20;90.23;98156.41;5062784;28;19912;-52
2022/04/16 01:48:41;;;;;;;;;;;7.70;99.90;;;7.17;90.44;98161.69;5063974;28;19921;-52
2022/04/16 01:51:07;;;;;;;;;;;7.70;99.90;;;7.16;90.39;98165.22;5068842;28;19920;-53
2022/04/16 01:53:33;;;;;;;;;;;7.70;99.90;;;7.13;90.62;98174.88;5062393;28;19920;-53
2022/04/16 01:55:58;;;;;;;;;;;7.60;99.90;;;7.11;90.88;98167.00;5066759;28;19919;-49
2022/04/16 01:58:25;;;;;;;;;;;7.60;99.90;;;7.13;90.92;98177.50;5063059;28;20356;-53
2022/04/16 02:00:50;;;;;;;;;;;7.60;99.90;;;7.10;90.57;98180.13;5066672;28;19958;-51
2022/04/16 02:03:16;;;;;;;;;;;7.60;99.90;;;7.17;90.33;98179.19;5069281;28;19948;-50
2022/04/16 02:05:42;;;;;;;;;;;7.60;99.90;;;7.14;90.15;98177.47;5063027;28;20376;-49
2022/04/16 02:08:08;;;;;;;;;;;7.60;99.90;;;7.10;90.86;98180.13;5063859;28;19962;-49
2022/04/16 02:10:35;;;;;;;;;;;7.60;99.90;;;7.16;90.24;98187.94;5056183;28;19912;-50
2022/04/16 02:13:01;;;;;;;;;;;7.60;99.90;;;7.13;90.29;98180.97;5064748;28;20439;-49
2022/04/16 02:15:27;;;;;;;;;;;7.60;99.90;;;7.08;90.82;98183.63;5067478;28;20015;-53
2022/04/16 02:17:54;;;;;;;;;;;7.50;99.90;;;7.07;90.77;98175.81;5064034;28;20011;-51
2022/04/16 02:20:23;;;;;;;;;;;7.50;99.90;;;7.05;91.16;98180.16;5069526;28;19916;-54
2022/04/16 02:22:49;;;;;;;;;;;7.50;99.90;;;6.97;91.35;98168.91;5068963;28;19913;-53
2022/04/16 02:25:17;;;;;;;;;;;7.50;99.90;;;6.94;91.79;98164.53;5066885;28;19920;-50
2022/04/16 02:27:42;;;;;;;;;;;7.40;99.90;;;6.84;92.13;98163.78;5067139;28;20441;-53
2022/04/16 02:30:13;;;;;;;;;;;7.40;99.90;;;6.83;92.02;98166.41;5066423;28;19916;-52
2022/04/16 02:32:40;;;;;;;;;;;7.30;99.90;;;6.74;92.34;98172.59;5065982;28;19916;-51
2022/04/16 02:35:07;;;;;;;;;;;7.30;99.90;;;6.63;92.86;98162.22;5068093;28;19947;-54
2022/04/16 02:37:33;;;;;;;;;;;7.20;99.90;;;6.57;93.62;98164.03;5087823;22;19924;-64
2022/04/16 02:39:58;;;;;;;;;;;7.10;99.90;;;6.49;94.25;98157.09;5085983;28;20287;-64
2022/04/16 02:42:24;;;;;;;;;;;7.00;99.90;;;6.47;94.95;98164.09;5088288;28;19938;-64
2022/04/16 02:47:33;;;;;;;;;;;7.00;99.90;;;6.34;96.13;98174.72;5081050;28;19918;-64
2022/04/16 02:49:59;;;;;;;;;;;6.90;99.90;;;6.25;96.84;98163.41;5083022;28;19937;-64
2022/04/16 02:52:25;;;;;;;;;;;6.90;99.90;;;6.24;97.13;98172.13;5080774;28;19912;-64
2022/04/16 02:54:52;;;;;;;;;;;6.80;99.90;;;6.22;97.49;98179.16;5080251;28;19912;-64
2022/04/16 02:57:18;;;;;;;;;;;6.80;99.90;;;6.18;97.70;98182.66;5076095;28;19920;-64
2022/04/16 02:59:46;;;;;;;;;;;6.80;99.90;;;6.11;98.30;98186.22;5083677;28;20007;-64
2022/04/16 03:02:15;;;;;;;;;;;6.70;99.90;;;6.05;99.19;98181.88;5077891;28;19927;-64
2022/04/16 03:04:40;;;;;;;;;;;6.60;99.90;;;6.01;100.00;98187.16;5079811;28;19912;-64
2022/04/16 03:07:06;;;;;;;;;;;6.60;99.90;;;5.92;100.00;98170.59;5081628;28;21452;-64
2022/04/16 03:09:32;;;;;;;;;;;6.60;99.90;;;5.89;100.00;98172.34;5083777;28;19957;-64
2022/04/16 03:11:58;;;;;;;;;;;6.50;99.90;;;5.85;100.00;98183.69;5080761;28;19987;-64
2022/04/16 03:19:52;;;;;;;;;;;6.30;99.90;;;5.69;100.00;98204.75;5079447;28;20213;-64
2022/04/16 03:22:18;;;;;;;;;;;6.20;99.90;;;5.69;100.00;98198.66;5083995;28;20007;-64
2022/04/16 03:24:43;;;;;;;;;;;6.20;99.90;;;5.74;100.00;98191.63;5077797;28;20315;-64
2022/04/16 03:27:09;;;;;;;;;;;6.30;99.90;;;5.79;100.00;98179.38;5081361;28;19938;-64
2022/04/16 03:29:35;;;;;;;;;;;6.30;99.90;;;5.87;100.00;98185.44;5086224;28;19992;-64
2022/04/16 03:32:00;;;;;;;;;;;6.40;99.90;;;5.94;100.00;98186.31;5086968;28;19965;-64
2022/04/16 03:34:26;;;;;;;;;;;6.50;99.90;;;6.02;100.00;98181.03;5081230;28;20414;-64
2022/04/16 03:36:52;;;;;;;;;;;6.60;99.90;;;6.07;100.00;98180.13;5078876;28;20011;-64
2022/04/16 03:39:20;;;;;;;;;;;6.60;99.90;;;6.13;100.00;98175.72;5078699;28;19916;-64
2022/04/16 03:41:47;;;;;;;;;;;6.70;99.90;;;6.19;100.00;98168.72;5086347;28;20414;-64
2022/04/16 03:44:13;;;;;;;;;;;6.70;99.90;;;6.20;100.00;98170.44;5080866;28;19947;-64
2022/04/16 03:46:38;;;;;;;;;;;6.80;99.90;;;6.16;100.00;98170.47;5083835;28;19920;-64
2022/04/16 03:49:04;;;;;;;;;;;6.80;99.90;;;6.13;100.00;98186.22;5075176;28;20103;-64
2022/04/16 03:51:29;;;;;;;;;;;6.70;99.90;;;6.04;100.00;98179.28;5080516;28;19912;-64
2022/04/16 03:53:55;;;;;;;;;;;6.60;99.90;;;5.96;100.00;98178.44;5086805;28;19957;-65
2022/04/16 04:01:49;;;;;;;;;;;6.30;99.90;;;5.63;100.00;98173.34;5071807;28;19922;-65
2022/04/16 04:04:15;;;;;;;;;;;6.20;99.90;;;5.55;100.00;98177.75;5084570;28;19912;-65
2022/04/16 04:06:40;;;;;;;;;;;6.20;99.90;;;5.47;100.00;98187.38;5081145;28;20363;-65
2022/04/16 04:09:06;;;;;;;;;;;6.10;99.90;;;5.39;100.00;98183.94;5081121;28;19924;-65
2022/04/16 04:11:32;;;;;;;;;;;6.00;99.90;;;5.28;100.00;98182.22;5085730;28;19916;-65
2022/04/16 04:13:58;;;;;;;;;;;5.90;99.90;;;5.28;100.00;98191.81;5086854;28;20405;-65
2022/04/16 04:16:24;;;;;;;;;;;5.90;99.90;;;5.18;100.00;98190.97;5084711;28;19920;-65
2022/04/16 04:18:49;;;;;;;;;;;5.80;99.90;;;5.12;100.00;98197.09;5081047;28;20442;-65
2022/04/16 04:21:15;;;;;;;;;;;5.70;99.90;;;5.07;100.00;98190.13;5086870;28;20058;-65
2022/04/16 04:23:41;;;;;;;;;;;5.70;99.90;;;5.11;100.00;98205.78;5080307;28;19912;-65
2022/04/16 04:26:06;;;;;;;;;;;5.70;99.90;;;5.11;100.00;98205.78;5084533;28;20015;-65
2022/04/16 04:28:32;;;;;;;;;;;5.70;99.90;;;5.19;100.00;98208.41;5085483;28;20364;-65
2022/04/16 04:30:57;;;;;;;;;;;5.70;99.90;;;5.31;100.00;98217.94;5083350;28;19921;-65
2022/04/16 04:33:23;;;;;;;;;;;5.80;99.90;;;5.40;100.00;98212.72;5086162;28;20041;-65
2022/04/16 04:35:51;;;;;;;;;;;6.00;99.90;;;5.51;100.00;98220.53;5082234;28;19920;-65
2022/04/16 04:38:18;;;;;;;;;;;6.10;99.90;;;5.64;100.00;98218.72;5082021;28;19922;-65
2022/04/16 04:40:43;;;;;;;;;;;6.20;99.90;;;5.75;100.00;98216.94;5079495;28;19970;-66
2022/04/16 04:43:09;;;;;;;;;;;6.30;99.90;;;5.85;100.00;98218.63;5084938;28;19967;-64
2022/04/16 04:45:34;;;;;;;;;;;6.40;99.90;;;6.00;100.00;98219.47;5086100;28;19995;-65
2022/04/16 04:48:00;;;;;;;;;;;6.50;99.90;;;6.06;100.00;98209.81;5075397;28;19916;-65
2022/04/16 04:50:26;;;;;;;;;;;6.60;99.90;;;6.14;100.00;98220.25;5085204;28;19912;-65
2022/04/16 04:52:51;;;;;;;;;;;6.70;99.90;;;6.20;100.00;98211.47;5080753;28;19916;-65
2022/04/16 04:55:17;;;;;;;;;;;6.80;99.90;;;6.27;100.00;98219.28;5084492;28;20333;-66
2022/04/16 04:57:42;;;;;;;;;;;6.90;99.90;;;6.41;100.00;98227.06;5081725;28;19923;-65
2022/04/16 05:00:10;;;;;;;;;;;6.90;99.90;;;6.46;100.00;98217.41;5087589;28;20368;-65
2022/04/16 05:02:40;;;;;;;;;;;7.00;99.90;;;6.55;100.00;98219.09;5083241;28;19923;-65
2022/04/16 05:05:06;;;;;;;;;;;7.10;99.90;;;6.63;100.00;98219.88;5085351;28;19916;-65
2022/04/16 05:07:32;;;;;;;;;;;7.20;99.90;;;6.67;100.00;98226.84;5090443;28;19919;-65
2022/04/16 05:09:57;;;;;;;;;;;7.20;99.90;;;6.68;100.00;98225.97;5087982;28;19950;-65
2022/04/16 05:12:23;;;;;;;;;;;7.30;99.90;;;6.67;100.00;98229.47;5081401;28;20422;-65
2022/04/16 05:14:49;;;;;;;;;;;7.30;99.90;;;6.68;100.00;98233.84;5088007;28;19920;-65
2022/04/16 05:17:14;;;;;;;;;;;7.30;99.90;;;6.71;100.00;98238.16;5089284;28;19924;-65
2022/04/16 05:19:40;;;;;;;;;;;7.30;99.90;;;6.68;100.00;98227.72;5090059;28;20327;-65
2022/04/16 05:22:06;;;;;;;;;;;7.30;99.90;;;6.77;100.00;98246.00;5090324;28;19951;-65
2022/04/16 05:24:31;;;;;;;;;;;7.30;99.90;;;6.72;100.00;98233.81;5090667;28;19916;-65
2022/04/16 05:26:57;;;;;;;;;;;7.30;99.90;;;6.84;100.00;98242.44;5089769;28;19916;-65
2022/04/16 05:29:24;;;;;;;;;;;7.40;99.90;;;6.94;100.00;98240.59;5090011;28;19978;-65
2022/04/16 05:31:50;;;;;;;;;;;7.50;99.90;;;6.90;99.64;98214.44;5087415;28;19966;-65
2022/04/16 05:34:18;;;;;;;;;;;7.60;99.90;;;7.15;99.19;98242.16;5085622;28;19920;-65
2022/04/16 05:36:48;;;;;;;;;;;7.60;99.90;;;7.26;97.91;98237.66;5085582;28;19951;-65
2022/04/16 05:39:15;;;;;;;;;;;7.80;99.90;;;7.35;96.46;98236.69;5083749;28;20070;-65
2022/04/16 05:41:40;;;;;;;;;;;7.80;99.90;;;7.42;95.36;98241.00;5088057;28;19912;-65
2022/04/16 05:44:06;;;;;;;;;;;7.90;99.90;;;7.50;94.87;98247.91;5089929;28;20012;-65
2022/04/16 05:46:31;;;;;;;;;;;8.00;99.90;;;7.52;94.63;98247.03;5086496;28;19980;-65
2022/04/16 05:48:57;;;;;;;;;;;8.10;99.90;;;7.62;94.70;98264.41;5083084;28;20330;-65
2022/04/16 05:51:25;;;;;;;;;;;8.10;99.90;;;7.63;93.90;98260.91;5087822;28;21172;-65
2022/04/16 05:53:52;;;;;;;;;;;8.10;99.90;;;7.65;93.17;98268.75;5085609;28;19918;-65
2022/04/16 05:56:18;;;;;;;;;;;8.20;99.90;;;7.68;92.79;98260.88;5084453;28;19925;-65
2022/04/16 05:58:44;;;;;;;;;;;8.20;99.90;;;7.73;92.11;98259.03;5085134;28;19916;-65
2022/04/16 06:01:10;;;;;;;;;;;8.30;99.90;;;7.77;91.95;98257.22;5087033;28;19971;-65
2022/04/16 06:03:36;;;;;;;;;;;8.30;99.90;;;7.79;91.81;98258.97;5088514;28;20014;-65
2022/04/16 06:06:03;;;;;;;;;;;8.30;99.90;;;7.84;91.64;98256.28;5084871;28;19938;-65
2022/04/16 06:08:29;;;;;;;;;;;8.40;99.90;;;7.89;90.54;98256.22;5084288;28;19924;-65
2022/04/16 06:10:54;;;;;;;;;;;8.40;99.90;;;7.88;90.33;98260.63;5083865;28;20272;-66
2022/04/16 06:13:20;;;;;;;;;;;8.40;99.90;;;7.85;90.27;98271.16;5084451;28;19916;-65
2022/04/16 06:15:46;;;;;;;;;;;8.40;99.90;;;7.80;90.62;98271.19;5088199;28;20314;-64
2022/04/16 06:18:12;;;;;;;;;;;8.40;99.90;;;7.76;90.86;98273.91;5082565;28;19978;-64
2022/04/16 06:20:37;;;;;;;;;;;8.40;99.90;;;7.80;91.37;98279.06;5089621;28;19999;-64
2022/04/16 06:23:04;;;;;;;;;;;8.40;99.90;;;7.79;91.22;98276.50;5086207;28;20010;-66
2022/04/16 06:25:30;;;;;;;;;;;8.40;99.90;;;7.87;91.38;98287.75;5081543;28;20082;-64
2022/04/16 06:27:55;;;;;;;;;;;8.40;99.90;;;7.90;91.21;98290.34;5081567;28;19923;-64
2022/04/16 06:30:21;;;;;;;;;;;8.40;99.90;;;7.96;90.75;98292.91;5086237;28;20014;-64
2022/04/16 06:32:47;;;;;;;;;;;8.50;99.90;;;7.99;90.11;98284.13;5085589;28;20791;-64
2022/04/16 06:35:13;;;;;;;;;;;8.50;99.90;;;8.09;90.16;98287.50;5086360;28;20008;-64
2022/04/16 06:37:40;;;;;;;;;;;8.60;99.90;;;8.18;90.17;98290.88;5077268;28;19924;-64
2022/04/16 06:40:07;;;;;;;;;;;8.70;99.90;;;8.32;89.73;98292.44;5079627;28;19916;-64
2022/04/16 06:42:32;;;;;;;;;;;8.80;99.90;;;8.31;87.79;98282.81;5086949;28;19920;-66
2022/04/16 06:44:58;;;;;;;;;;;8.90;99.90;;;8.36;88.48;98284.50;5086971;28;19912;-64
2022/04/16 06:47:24;;;;;;;;;;;8.90;99.90;;;8.41;86.57;98292.31;5084019;28;19912;-64
2022/04/16 06:49:49;;;;;;;;;;;9.00;99.90;;;8.47;86.79;98289.66;5085262;28;20323;-64
2022/04/16 06:52:19;;;;;;;;;;;9.00;99.90;;;8.55;84.47;98293.03;5084822;28;19912;-65
2022/04/16 06:54:45;;;;;;;;;;;9.10;99.90;;;8.57;84.17;98293.88;5084797;28;19958;-64
2022/04/16 06:57:11;;;;;;;;;;;9.10;99.90;;;8.53;84.99;98299.22;5080634;28;19962;-63
2022/04/16 06:59:37;;;;;;;;;;;9.10;99.90;;;8.50;84.52;98299.25;5085492;28;19951;-63
2022/04/16 07:02:05;;;;;;;;;;;9.10;99.90;;;8.54;84.30;98295.66;5084412;28;19924;-64
2022/04/16 07:04:30;;;;;;;;;;;9.10;99.90;;;8.59;85.09;98307.84;5083312;28;19916;-63
2022/04/16 07:06:56;;;;;;;;;;;9.20;99.90;;;8.55;84.15;98293.03;5083551;28;19965;-64
2022/04/16 07:09:21;;;;;;;;;;;9.20;99.90;;;8.72;84.37;98292.78;5081112;28;19955;-64
2022/04/16 07:11:47;;;;;;;;;;;9.30;99.90;;;8.91;83.21;98293.34;5078859;28;19912;-63
2022/04/16 07:14:12;;;;;;;;;;;9.50;99.90;;;9.06;81.64;98302.78;5087034;28;20355;-63
2022/04/16 07:16:38;;;;;;;;;;;9.60;99.90;;;9.12;81.52;98296.53;5082438;28;19931;-63
2022/04/16 07:19:04;;;;;;;;;;;9.60;99.90;;;9.17;82.25;98300.84;5072513;28;19964;-64
2022/04/16 07:21:29;;;;;;;;;;;9.80;99.90;;;9.27;81.27;98306.78;5087619;28;19916;-63
2022/04/16 07:23:55;;;;;;;;;;;9.80;99.90;;;9.46;79.06;98315.25;5086180;28;20363;-63
2022/04/16 07:26:20;;;;;;;;;;;9.90;99.90;;;9.36;80.07;98306.63;5087005;28;19920;-63
2022/04/16 07:28:46;;;;;;;;;;;9.90;99.90;;;9.40;80.44;98306.59;5081258;28;19924;-63
2022/04/16 07:31:12;;;;;;;;;;;10.00;99.90;;;9.48;80.64;98305.56;5081686;28;20006;-63
2022/04/16 07:33:37;;;;;;;;;;;10.00;99.90;;;9.49;79.96;98298.50;5086386;28;20283;-63
2022/04/16 07:36:03;;;;;;;;;;;10.10;99.90;;;9.58;78.99;98319.41;5076144;28;20257;-63
2022/04/16 07:38:29;;;;;;;;;;;10.10;99.90;;;9.66;79.69;98314.88;5073122;28;20243;-63
2022/04/16 07:40:54;;;;;;;;;;;10.20;99.90;;;9.71;78.51;98320.06;5083456;28;19999;-63
2022/04/16 07:43:20;;;;;;;;;;;10.30;99.90;;;9.74;78.39;98322.63;5087973;28;19986;-64
2022/04/16 07:45:45;;;;;;;;;;;10.30;99.90;;;9.74;78.14;98327.91;5079739;28;20268;-63
2022/04/16 07:48:11;;;;;;;;;;;10.30;99.90;;;9.70;78.84;98321.81;5079738;28;20374;-63
2022/04/16 07:50:37;;;;;;;;;;;10.30;99.90;;;9.83;78.38;98329.50;5085664;28;19912;-63
2022/04/16 07:53:04;;;;;;;;;;;10.40;99.90;;;9.83;78.64;98329.50;5082042;28;19954;-63
2022/04/16 07:55:32;;;;;;;;;;;10.40;99.90;;;9.79;79.76;98330.47;5080638;28;19916;-63
2022/04/16 07:57:58;;;;;;;;;;;10.50;99.90;;;9.92;79.96;98334.59;5079627;28;19942;-63
2022/04/16 08:00:24;;;;;;;;;;;10.50;99.90;;;10.13;78.72;98334.16;5087661;28;20028;-63
2022/04/16 08:02:49;;;;;;;;;;;10.70;99.90;;;10.28;77.43;98337.38;5084625;28;19924;-63
2022/04/16 08:05:15;;;;;;;;;;;10.90;99.90;;;10.47;76.24;98340.53;5076221;28;19923;-63
2022/04/16 08:07:41;;;;;;;;;;;11.10;99.90;;;10.62;75.75;98340.22;5080124;28;19927;-63
2022/04/16 08:10:07;;;;;;;;;;;11.20;99.90;;;10.72;74.98;98346.16;5086413;28;19931;-63
2022/04/16 08:12:33;;;;;;;;;;;11.30;99.90;;;10.68;75.48;98347.13;5085099;28;19919;-63
2022/04/16 08:14:58;;;;;;;;;;;11.40;99.90;;;10.79;75.23;98357.44;5083745;28;19924;-63
2022/04/16 08:17:24;;;;;;;;;;;11.50;99.90;;;10.81;74.19;98347.72;5081683;28;19916;-63
2022/04/16 08:19:49;;;;;;;;;;;11.50;99.90;;;10.77;75.32;98346.91;5083640;28;20434;-62
2022/04/16 08:22:20;;;;;;;;;;;11.40;99.90;;;10.80;75.23;98357.41;5079585;28;19995;-62
2022/04/16 08:24:55;;;;;;;;;;;11.50;99.90;;;10.78;74.52;98348.63;5087047;28;19969;-62
2022/04/16 08:27:21;;;;;;;;;;;11.60;99.90;;;10.98;75.58;98357.88;5083056;28;19912;-63
2022/04/16 08:29:47;;;;;;;;;;;11.70;99.90;;;11.29;75.28;98352.75;5085791;28;19923;-62
2022/04/16 08:32:13;;;;;;;;;;;11.90;99.90;;;11.44;73.49;98344.41;5084444;28;19920;-63
2022/04/16 08:34:38;;;;;;;;;;;12.10;99.90;;;11.54;71.88;98349.47;5087072;28;19942;-63
2022/04/16 08:37:04;;;;;;;;;;;12.30;99.90;;;11.68;71.91;98359.69;5079354;28;19928;-62
2022/04/16 08:39:29;;;;;;;;;;;12.30;99.90;;;11.88;71.40;98354.75;5085951;28;19912;-62
2022/04/16 08:41:57;;;;;;;;;;;12.50;99.90;;;11.98;70.91;98356.25;5077456;22;19952;-42
2022/04/16 08:44:25;;;;;;;;;;;12.60;99.90;;;12.10;70.80;98356.84;5048808;28;19919;-41
2022/04/16 08:46:51;;;;;;;;;;;12.70;99.90;;;12.15;69.29;98365.50;5049066;28;19916;-41
2022/04/16 08:49:19;;;;;;;;;;;12.80;99.90;;;11.72;71.01;98364.84;5049109;28;19939;-41
2022/04/16 08:51:46;;;;;;;;;;;12.70;99.90;;;11.62;70.91;98356.28;5046991;28;19955;-41
2022/04/16 08:54:12;;;;;;;;;;;12.40;99.90;;;11.66;71.33;98362.34;5044612;28;19917;-41
2022/04/16 08:56:39;;;;;;;;;;;12.30;99.90;;;11.62;72.58;98356.28;5048231;28;19920;-41
2022/04/16 08:59:05;;;;;;;;;;;12.30;99.90;;;11.69;72.59;98369.34;5037948;28;19921;-41
2022/04/16 09:01:30;;;;;;;;;;;12.40;99.90;;;11.77;68.82;98370.00;5038906;28;20294;-41
2022/04/16 09:03:58;;;;;;;;;;;12.50;99.90;;;11.86;67.85;98369.75;5042066;28;20007;-41
2022/04/16 09:06:24;;;;;;;;;;;12.60;99.90;;;11.99;67.53;98376.50;5042614;28;19924;-41
2022/04/16 09:08:50;;;;;;;;;;;12.70;99.90;;;12.14;66.03;98371.72;5043885;28;20238;-41
2022/04/16 09:11:21;;;;;;;;;;;12.80;99.90;;;12.20;66.37;98369.75;5042441;28;19923;-41
2022/04/16 09:13:49;;;;;;;;;;;12.90;99.90;;;12.34;66.30;98384.38;5045801;28;19988;-41
2022/04/16 09:16:19;;;;;;;;;;;13.00;99.90;;;12.50;64.89;98374.22;5049617;28;20079;-41
2022/04/16 09:18:52;;;;;;;;;;;13.20;99.90;;;12.41;63.99;98381.50;5042671;28;19921;-41
2022/04/16 09:21:19;;;;;;;;;;;13.20;99.90;;;12.42;64.47;98385.03;5040027;28;20307;-41
2022/04/16 09:23:53;;;;;;;;;;;13.10;99.90;;;12.36;65.06;98369.31;5042673;28;19923;-41
2022/04/16 09:26:25;;;;;;;;;;;13.10;99.90;;;12.45;65.37;98376.97;5038180;28;19913;-41
2022/04/16 09:28:51;;;;;;;;;;;13.00;99.90;;;12.22;66.15;98377.63;5047394;28;19917;-41
2022/04/16 09:31:17;;;;;;;;;;;13.00;99.90;;;12.16;66.66;98378.66;5036321;28;19966;-41
2022/04/16 09:33:44;;;;;;;;;;;12.90;99.90;;;12.28;66.29;98377.47;5041020;28;19921;-41
2022/04/16 09:36:10;;;;;;;;;;;13.00;99.90;;;12.41;66.26;98381.50;5035389;28;19917;-41
2022/04/16 09:38:36;;;;;;;;;;;13.10;99.90;;;12.27;66.02;98386.31;5039553;28;19974;-41
2022/04/16 09:41:05;;;;;;;;;;;13.10;99.90;;;12.23;65.69;98382.88;5041052;28;19923;-41
2022/04/16 09:43:37;;;;;;;;;;;13.10;99.90;;;12.33;66.14;98374.72;5044676;28;19959;-41
2022/04/16 09:46:13;;;;;;;;;;;13.10;99.90;;;12.50;65.83;98379.50;5045350;28;19944;-41
2022/04/16 09:48:39;;;;;;;;;;;13.20;99.90;;;12.57;65.84;98375.78;5037391;28;19916;-41
2022/04/16 09:51:05;;;;;;;;;;;13.20;99.90;;;12.66;65.08;98378.13;5040919;28;19963;-41
2022/04/16 09:53:31;;;;;;;;;;;13.20;99.90;;;12.53;65.71;98387.38;5045733;28;19917;-41
2022/04/16 09:55:59;;;;;;;;;;;13.20;99.90;;;12.55;64.69;98388.19;5042919;28;19921;-41
2022/04/16 09:58:35;;;;;;;;;;;13.20;99.90;;;12.60;65.53;98388.91;5038920;28;19936;-41
2022/04/16 10:01:01;;;;;;;;;;;13.20;99.90;;;12.58;66.53;98390.75;5040343;28;19917;-41
2022/04/16 10:03:29;;;;;;;;;;;13.20;99.90;;;12.55;65.59;98390.81;5038564;28;20477;-41
2022/04/16 10:05:58;;;;;;;;;;;13.20;99.90;;;12.57;64.01;98391.66;5037746;28;20433;-41
2022/04/16 10:08:28;;;;;;;;;;;13.20;99.90;;;12.62;65.19;98396.81;5041450;28;20011;-41
2022/04/16 10:10:57;;;;;;;;;;;13.30;99.90;;;12.85;62.58;98390.81;5045011;28;19952;-41
2022/04/16 10:13:23;;;;;;;;;;;13.50;99.90;;;13.11;60.76;98408.56;5041981;28;19936;-41
2022/04/16 10:16:01;;;;;;;;;;;13.70;99.90;;;13.28;59.48;98389.47;5047619;28;19928;-41
2022/04/16 10:18:27;;;;;;;;;;;14.00;99.90;;;13.32;57.59;98399.13;5036498;28;19936;-41
2022/04/16 10:20:54;;;;;;;;;;;14.20;99.90;;;13.72;55.45;98403.09;5040643;28;19920;-41
2022/04/16 10:23:36;;;;;;;;;;;14.30;99.80;;;13.46;56.47;98404.84;5042215;28;19919;-41
2022/04/16 10:26:21;;;;;;;;;;;14.20;99.60;;;13.56;54.42;98411.53;5031999;28;19927;-41
2022/04/16 10:28:54;;;;;;;;;;;14.30;99.20;;;13.53;56.04;98405.47;5043437;28;20407;-41
2022/04/16 10:31:22;;;;;;;;;;;14.30;99.10;;;13.67;56.83;98408.53;5037039;28;19924;-41
2022/04/16 10:34:11;;;;;;;;;;;14.30;99.80;;;13.75;56.67;98405.66;5041928;28;19931;-41
2022/04/16 10:36:41;;;;;;;;;;;14.40;99.20;;;14.12;55.72;98401.72;5046223;28;19931;-41
2022/04/16 10:39:17;;;;;;;;;;;14.60;99.50;;;14.30;55.65;98409.03;5039608;28;19953;-41
2022/04/16 10:42:03;;;;;;;;;;;14.90;98.90;;;14.39;53.92;98405.19;5031743;28;19946;-41
2022/04/16 10:44:42;;;;;;;;;;;15.00;98.30;;;14.36;53.10;98394.66;5035376;28;20115;-41
2022/04/16 10:47:10;;;;;;;;;;;15.10;97.40;;;14.22;52.97;98403.13;5046809;28;19971;-41
2022/04/16 10:49:39;;;;;;;;;;;15.00;96.80;;;13.84;54.28;98415.09;5044521;28;19917;-41
2022/04/16 10:52:05;;;;;;;;;;;14.80;97.40;;;13.77;51.22;98405.59;5046997;28;19917;-41
2022/04/16 10:54:34;;;;;;;;;;;14.70;95.50;;;13.99;51.77;98411.03;5046489;28;20356;-41
2022/04/16 10:57:01;;;;;;;;;;;14.70;96.40;;;13.98;51.57;98402.22;5041592;28;20356;-41
2022/04/16 10:59:40;;;;;;;;;;;14.80;95.80;;;14.00;50.72;98410.09;5039905;28;19975;-41
2022/04/16 11:02:26;;;;;;;;;;;14.90;95.00;;;14.20;50.86;98402.31;5041954;28;19959;-40
2022/04/16 11:05:00;;;;;;;;;;;15.00;95.30;;;14.48;48.81;98398.66;5039908;28;19913;-41
2022/04/16 11:07:30;;;;;;;;;;;15.10;94.10;;;14.45;50.24;98404.94;5044857;28;19944;-41
2022/04/16 11:09:56;;;;;;;;;;;15.10;94.50;;;14.46;48.89;98403.16;5045256;28;19944;-41
2022/04/16 11:12:23;;;;;;;;;;;15.10;93.80;;;14.49;49.36;98397.75;5042068;28;19913;-41
2022/04/16 11:14:52;;;;;;;;;;;15.10;93.60;;;14.59;47.75;98392.97;5044403;28;20349;-39
2022/04/16 11:17:21;;;;;;;;;;;15.20;93.00;;;14.67;47.50;98394.41;5036470;28;19921;-40
2022/04/16 11:19:58;;;;;;;;;;;15.30;92.90;;;14.62;46.48;98391.06;5041585;28;19913;-41
2022/04/16 11:22:23;;;;;;;;;;;15.20;91.80;;;14.66;46.61;98384.75;5041108;28;20406;-40
2022/04/16 11:24:49;;;;;;;;;;;15.30;91.70;;;14.80;46.65;98383.34;5043738;28;19991;-40
2022/04/16 11:36:01;;;;;;;;;;;15.00;91.40;;;14.07;49.73;98377.16;5035547;28;19935;-41
2022/04/16 11:38:37;;;;;;;;;;;14.80;92.80;;;14.13;49.31;98390.19;5035667;28;20315;-40
2022/04/16 11:41:12;;;;;;;;;;;14.70;92.60;;;14.13;47.68;98369.81;5041868;28;20157;-40
2022/04/16 11:43:50;;;;;;;;;;;14.80;92.10;;;13.97;47.07;98389.00;5043343;28;19946;-40
2022/04/16 11:46:16;;;;;;;;;;;14.80;90.90;;;14.03;46.83;98387.00;5043767;28;20475;-40
2022/04/16 11:48:43;;;;;;;;;;;14.80;90.70;;;14.16;46.04;98386.53;5037873;28;19935;-40